Time;durP1;ratioP1;P1;durP2;ratioP2;P2;SDS_P1;SDS_P2;PMS_P1;PMS_P2;Temp;Humidity;BMP_temperature;BMP_pressure;BME280_temperature;BME280_humidity;BME280_pressure;Samples;Min_cycle;Max_cycle;Signal;HPM_P1;HPM_P2
2021/11/13 00:01:03;;;;;;;76.05;38.95;;;;;;;1.00;100.00;93584.88;5087611;28;20048;-81
2021/11/13 00:03:29;;;;;;;67.00;37.38;;;;;;;1.06;100.00;93580.97;5087243;28;20419;-80
2021/11/13 00:05:57;;;;;;;53.47;31.90;;;;;;;1.02;100.00;93565.28;5087295;28;20715;-80
2021/11/13 00:08:25;;;;;;;47.42;26.92;;;;;;;1.16;100.00;93569.06;5087648;28;20040;-80
2021/11/13 00:10:52;;;;;;;46.63;26.08;;;;;;;1.04;100.00;93549.97;5086969;28;20048;-81
2021/11/13 00:13:20;;;;;;;41.50;24.25;;;;;;;1.21;100.00;93573.72;5087629;28;20139;-80
2021/11/13 00:15:47;;;;;;;39.83;22.10;;;;;;;1.21;100.00;93568.66;5086700;28;20044;-80
2021/11/13 00:18:15;;;;;;;33.70;21.05;;;;;;;1.30;100.00;93580.44;5087006;28;20066;-81
2021/11/13 00:20:43;;;;;;;36.80;21.75;;;;;;;1.31;100.00;93584.56;5086786;28;20553;-80
2021/11/13 00:23:10;;;;;;;36.83;21.42;;;;;;;1.36;100.00;93588.41;5089622;28;20056;-81
2021/11/13 00:25:38;;;;;;;31.58;18.40;;;;;;;1.27;100.00;93582.47;5090528;28;20044;-81
2021/11/13 00:28:05;;;;;;;30.70;20.63;;;;;;;0.99;100.00;93552.94;5090599;28;20089;-81
2021/11/13 00:30:32;;;;;;;35.20;21.33;;;;;;;1.17;100.00;93585.84;5090567;28;20094;-81
2021/11/13 00:32:59;;;;;;;40.47;22.85;;;;;;;1.01;100.00;93568.75;5090510;28;20048;-81
2021/11/13 00:35:26;;;;;;;34.78;23.02;;;;;;;1.10;100.00;93586.56;5090588;28;20064;-81
2021/11/13 00:37:53;;;;;;;38.00;22.88;;;;;;;1.08;100.00;93599.34;5090363;28;20442;-81
2021/11/13 00:40:20;;;;;;;40.97;24.38;;;;;;;1.06;100.00;93593.63;5090501;28;20106;-81
2021/11/13 00:42:49;;;;;;;40.03;24.65;;;;;;;1.01;100.00;93580.59;5087522;28;20039;-81
2021/11/13 00:45:16;;;;;;;34.88;22.10;;;;;;;1.01;100.00;93575.53;5090579;28;20047;-81
2021/11/13 00:47:43;;;;;;;32.85;19.65;;;;;;;0.92;100.00;93562.81;5090047;28;20549;-81
2021/11/13 00:50:13;;;;;;;30.10;18.02;;;;;;;0.95;100.00;93568.53;5090051;28;20048;-81
2021/11/13 00:52:40;;;;;;;25.75;14.95;;;;;;;1.03;100.00;93587.09;5090416;28;20067;-81
2021/11/13 00:55:08;;;;;;;25.60;15.05;;;;;;;0.96;100.00;93583.56;5090007;28;20044;-81
2021/11/13 00:57:35;;;;;;;26.15;15.68;;;;;;;0.98;100.00;93586.78;5090826;28;20044;-80
2021/11/13 01:00:05;;;;;;;25.63;15.40;;;;;;;0.91;100.00;93578.94;5090745;28;20101;-80
2021/11/13 01:02:32;;;;;;;24.40;14.93;;;;;;;0.96;100.00;93585.31;5088355;28;20384;-80
2021/11/13 01:04:59;;;;;;;24.58;15.20;;;;;;;0.95;100.00;93581.97;5090734;28;20048;-80
2021/11/13 01:07:25;;;;;;;23.08;13.20;;;;;;;0.91;100.00;93585.72;5090291;28;20491;-80
2021/11/13 01:09:53;;;;;;;26.20;14.70;;;;;;;0.87;100.00;93582.69;5090368;28;20457;-80
2021/11/13 01:12:20;;;;;;;27.00;15.65;;;;;;;0.79;100.00;93568.22;5090803;28;20491;-80
2021/11/13 01:14:47;;;;;;;24.67;15.25;;;;;;;0.70;100.00;93566.53;5090909;28;20056;-80
2021/11/13 01:17:16;;;;;;;23.70;14.77;;;;;;;0.62;100.00;93562.19;5090451;28;20060;-80
2021/11/13 01:19:46;;;;;;;26.83;15.63;;;;;;;0.69;100.00;93569.19;5090537;28;20044;-80
2021/11/13 01:22:13;;;;;;;22.95;14.38;;;;;;;0.70;100.00;93570.78;5090932;28;20138;-80
2021/11/13 01:24:40;;;;;;;27.27;16.00;;;;;;;0.59;100.00;93562.44;5090573;28;20052;-80
2021/11/13 01:27:07;;;;;;;24.00;16.27;;;;;;;0.60;100.00;93560.72;5089826;28;20067;-80
2021/11/13 01:29:34;;;;;;;27.80;15.05;;;;;;;0.69;100.00;93569.97;5090440;28;20048;-79
2021/11/13 01:32:01;;;;;;;28.08;15.82;;;;;;;0.73;100.00;93571.28;5090367;28;20491;-80
2021/11/13 01:34:30;;;;;;;25.85;14.77;;;;;;;0.69;100.00;93561.63;5090470;28;20048;-79
2021/11/13 01:36:57;;;;;;;23.67;14.80;;;;;;;0.60;100.00;93537.97;5090583;28;20060;-79
2021/11/13 01:39:24;;;;;;;25.80;15.27;;;;;;;0.68;100.00;93552.44;5090177;28;20047;-79
2021/11/13 01:41:51;;;;;;;21.30;13.48;;;;;;;0.44;100.00;93515.81;5090288;28;20058;-78
2021/11/13 01:44:17;;;;;;;20.67;13.05;;;;;;;0.68;100.00;93562.56;5090251;28;20048;-81
2021/11/13 01:46:44;;;;;;;20.92;12.65;;;;;;;0.68;100.00;93567.63;5090468;28;20524;-79
2021/11/13 01:49:11;;;;;;;17.65;11.70;;;;;;;0.55;100.00;93548.47;5089866;28;20097;-79
2021/11/13 01:51:40;;;;;;;19.73;12.18;;;;;;;0.66;100.00;93565.22;5089531;28;20052;-78
2021/11/13 01:54:08;;;;;;;18.92;12.48;;;;;;;0.58;100.00;93562.56;5089731;28;20443;-78
2021/11/13 01:56:37;;;;;;;20.38;12.48;;;;;;;0.60;100.00;93560.72;5089880;28;20102;-79
2021/11/13 01:59:06;;;;;;;26.40;14.73;;;;;;;0.62;100.00;93567.22;5089364;28;20056;-79
2021/11/13 02:01:33;;;;;;;52.75;26.20;;;;;;;0.47;100.00;93568.63;5089426;28;20495;-78
2021/11/13 02:04:00;;;;;;;45.50;24.67;;;;;;;0.40;100.00;93560.78;5089716;28;20044;-78
2021/11/13 02:06:28;;;;;;;43.38;23.98;;;;;;;0.41;100.00;93562.38;5089298;28;20503;-78
2021/11/13 02:08:56;;;;;;;42.70;22.67;;;;;;;0.44;100.00;93561.31;5089914;28;20094;-78
2021/11/13 02:11:26;;;;;;;43.63;22.15;;;;;;;0.44;100.00;93558.78;5089307;28;20048;-78
2021/11/13 02:13:55;;;;;;;43.85;21.95;;;;;;;0.36;100.00;93554.41;5089330;28;20488;-78
2021/11/13 02:16:22;;;;;;;36.10;20.77;;;;;;;0.34;100.00;93557.09;5089531;28;20063;-78
2021/11/13 02:18:49;;;;;;;33.47;20.50;;;;;;;0.35;100.00;93563.72;5089377;28;20079;-80
2021/11/13 02:21:17;;;;;;;35.58;20.08;;;;;;;0.36;100.00;93560.28;5089436;28;20051;-79
2021/11/13 02:23:45;;;;;;;33.03;19.33;;;;;;;0.28;100.00;93537.44;5089107;28;20044;-78
2021/11/13 02:26:12;;;;;;;36.33;20.48;;;;;;;0.45;100.00;93556.09;5089329;28;20491;-79
2021/11/13 02:28:39;;;;;;;28.80;18.45;;;;;;;0.41;100.00;93548.94;5089160;28;20051;-79
2021/11/13 02:31:08;;;;;;;26.73;15.23;;;;;;;0.32;100.00;93548.84;5089528;28;20048;-79
2021/11/13 02:33:35;;;;;;;25.67;15.43;;;;;;;0.22;100.00;93528.66;5089092;28;20048;-78
2021/11/13 02:36:03;;;;;;;24.58;14.38;;;;;;;0.23;100.00;93545.41;5089174;28;20059;-79
2021/11/13 02:38:36;;;;;;;27.33;15.43;;;;;;;0.26;100.00;93547.66;5089172;28;20060;-79
2021/11/13 02:41:05;;;;;;;27.92;16.13;;;;;;;0.24;100.00;93552.06;5093063;28;20048;-79
2021/11/13 02:43:34;;;;;;;27.77;16.10;;;;;;;0.23;100.00;93553.00;5093277;28;20067;-79
2021/11/13 02:46:03;;;;;;;25.08;14.93;;;;;;;-0.07;100.00;93503.47;5088664;28;20044;-79
2021/11/13 02:48:32;;;;;;;27.02;15.07;;;;;;;0.26;100.00;93552.72;5091263;28;20048;-78
2021/11/13 02:50:59;;;;;;;24.83;15.77;;;;;;;0.25;100.00;93552.84;5093110;28;20051;-78
2021/11/13 02:53:27;;;;;;;25.38;15.25;;;;;;;0.21;100.00;93554.88;5093065;28;20491;-78
2021/11/13 02:55:58;;;;;;;33.55;18.35;;;;;;;0.18;100.00;93547.56;5093267;28;20048;-78
2021/11/13 02:58:26;;;;;;;25.92;15.95;;;;;;;0.14;100.00;93543.72;5092745;28;20044;-78
2021/11/13 03:00:56;;;;;;;75.88;33.25;;;;;;;0.25;100.00;93560.44;5092781;28;20059;-79
2021/11/13 03:03:24;;;;;;;71.53;31.67;;;;;;;0.15;100.00;93544.50;5092900;28;20052;-79
2021/11/13 03:05:52;;;;;;;79.40;33.35;;;;;;;0.20;100.00;93550.75;5092798;28;20044;-79
2021/11/13 03:08:25;;;;;;;75.28;31.20;;;;;;;0.23;100.00;93562.31;5090785;28;20058;-78
2021/11/13 03:10:53;;;;;;;66.22;26.73;;;;;;;0.19;100.00;93558.47;5090620;28;20056;-79
2021/11/13 03:13:22;;;;;;;62.90;27.63;;;;;;;0.13;100.00;93565.66;5091173;28;20055;-79
2021/11/13 03:15:49;;;;;;;57.15;26.48;;;;;;;0.04;100.00;93558.88;5092674;28;20059;-79
2021/11/13 03:18:16;;;;;;;48.35;22.77;;;;;;;0.04;100.00;93563.94;5092736;28;20044;-78
2021/11/13 03:20:44;;;;;;;33.20;17.52;;;;;;;-0.74;100.00;93451.28;5092431;28;20048;-78
2021/11/13 03:23:11;;;;;;;31.67;19.00;;;;;;;-0.11;100.00;93566.09;5092313;28;20055;-78
2021/11/13 03:25:40;;;;;;;35.70;17.27;;;;;;;-0.16;100.00;93553.06;5092566;28;20045;-79
2021/11/13 03:28:10;;;;;;;27.15;16.63;;;;;;;-0.17;100.00;93557.34;5092102;28;20448;-79
2021/11/13 03:30:40;;;;;;;25.77;15.32;;;;;;;-0.16;100.00;93563.19;5092521;28;20055;-79
2021/11/13 03:33:07;;;;;;;24.52;15.15;;;;;;;-0.23;100.00;93567.19;5092536;28;20052;-79
2021/11/13 03:35:34;;;;;;;27.23;16.08;;;;;;;-0.25;100.00;93566.50;5092259;28;20499;-78
2021/11/13 03:38:04;;;;;;;24.33;14.63;;;;;;;-0.28;100.00;93565.03;5092001;28;20052;-78
2021/11/13 03:40:31;;;;;;;27.05;14.50;;;;;;;-0.30;100.00;93569.44;5091701;28;20097;-78
2021/11/13 03:42:58;;;;;;;25.13;16.05;;;;;;;-0.27;100.00;93569.97;5092245;28;20048;-78
2021/11/13 03:45:25;;;;;;;30.77;17.55;;;;;;;-0.29;100.00;93571.03;5092086;28;20044;-78
2021/11/13 03:48:00;;;;;;;35.53;19.11;;;;;;;-0.46;100.00;93549.78;4566286;28;10001951;-78
2021/11/13 03:50:27;;;;;;;50.03;26.27;;;;;;;-0.49;100.00;93548.34;3151081;28;10002065;-78
2021/11/13 03:52:55;;;;;;;42.10;23.73;;;;;;;-0.36;100.00;93565.72;5071993;28;20051;-78
2021/11/13 03:55:23;;;;;;;42.58;24.63;;;;;;;-0.30;100.00;93560.16;5071902;28;20102;-80
2021/11/13 03:57:50;;;;;;;44.85;24.10;;;;;;;-0.52;100.00;93530.91;5071293;28;20052;-79
2021/11/13 04:00:20;;;;;;;47.72;25.52;;;;;;;-0.49;100.00;93534.91;5012347;28;20041;-79
2021/11/13 04:02:47;;;;;;;39.03;22.80;;;;;;;-0.32;100.00;93572.09;5070906;28;20874;-80
2021/11/13 04:05:16;;;;;;;38.90;23.45;;;;;;;-0.28;100.00;93570.09;5071323;28;20097;-77
2021/11/13 04:07:44;;;;;;;42.70;24.35;;;;;;;-0.31;100.00;93572.91;5071660;28;20059;-78
2021/11/13 04:10:13;;;;;;;39.78;24.75;;;;;;;-0.43;100.00;93559.59;5071126;28;20496;-78
2021/11/13 04:12:41;;;;;;;38.97;23.48;;;;;;;-0.32;100.00;93576.34;5071192;28;20048;-77
2021/11/13 04:15:09;;;;;;;40.90;23.70;;;;;;;-0.63;100.00;93536.09;5071136;28;20048;-77
2021/11/13 04:17:36;;;;;;;34.65;21.90;;;;;;;-0.51;100.00;93555.22;5071100;28;20479;-77
2021/11/13 04:20:04;;;;;;;48.88;27.13;;;;;;;-0.39;100.00;93571.03;5071064;28;20126;-77
2021/11/13 04:22:32;;;;;;;46.40;25.85;;;;;;;-0.60;100.00;93536.63;5071187;28;20052;-78
2021/11/13 04:24:59;;;;;;;41.55;23.75;;;;;;;-0.38;100.00;93572.63;5070922;28;20044;-78
2021/11/13 04:27:26;;;;;;;37.08;22.98;;;;;;;-0.44;100.00;93573.97;5071456;28;20048;-79
2021/11/13 04:29:53;;;;;;;35.53;21.85;;;;;;;-0.50;100.00;93568.66;5071392;28;20499;-79
2021/11/13 04:32:19;;;;;;;37.22;21.45;;;;;;;-0.49;100.00;93570.25;5071419;28;20048;-77
2021/11/13 04:34:51;;;;;;;41.97;24.67;;;;;;;-0.43;100.00;93579.78;5071157;28;20048;-77
2021/11/13 04:37:19;;;;;;;45.33;25.83;;;;;;;-0.47;100.00;93571.69;5070692;28;20555;-78
2021/11/13 04:39:49;;;;;;;45.25;25.35;;;;;;;-0.45;100.00;93566.53;5070716;28;20060;-78
2021/11/13 04:42:17;;;;;;;49.03;28.30;;;;;;;-0.70;100.00;93536.63;5070804;28;20491;-78
2021/11/13 04:44:44;;;;;;;43.58;25.92;;;;;;;-0.51;100.00;93585.50;5070521;28;20491;-78
2021/11/13 04:47:11;;;;;;;43.90;26.05;;;;;;;-0.59;100.00;93586.19;5070255;28;20044;-77
2021/11/13 04:49:38;;;;;;;37.22;21.10;;;;;;;-0.67;100.00;93583.50;5070832;28;20048;-78
2021/11/13 04:52:07;;;;;;;38.65;24.38;;;;;;;-0.64;100.00;93579.94;5070707;28;20040;-77
2021/11/13 04:54:35;;;;;;;39.95;22.45;;;;;;;-0.62;100.00;93583.09;5070454;28;20047;-77
2021/11/13 04:57:04;;;;;;;44.58;21.75;;;;;;;-0.61;100.00;93584.72;5070211;28;20044;-77
2021/11/13 04:59:32;;;;;;;33.28;19.83;;;;;;;-0.60;100.00;93589.63;5067536;28;20056;-79
2021/11/13 05:01:59;;;;;;;31.60;17.75;;;;;;;-0.64;100.00;93583.25;5069630;28;20094;-79
2021/11/13 05:04:26;;;;;;;27.88;16.38;;;;;;;-0.99;100.00;93544.16;5070058;28;20098;-78
2021/11/13 05:06:53;;;;;;;26.20;14.48;;;;;;;-0.65;100.00;93589.22;5067784;28;20466;-79
2021/11/13 05:09:19;;;;;;;92.35;34.05;;;;;;;-0.62;100.00;93586.44;5069818;28;20049;-79
2021/11/13 05:11:46;;;;;;;112.57;44.20;;;;;;;-0.65;100.00;93584.16;5068751;28;20041;-78
2021/11/13 05:14:14;;;;;;;88.80;34.78;;;;;;;-0.79;100.00;93575.25;5069533;28;20040;-78
2021/11/13 05:16:41;;;;;;;101.32;39.60;;;;;;;-0.69;100.00;93588.69;5069825;28;20412;-78
2021/11/13 05:19:09;;;;;;;64.28;27.20;;;;;;;-0.69;100.00;93587.91;5069610;28;20052;-79
2021/11/13 05:21:36;;;;;;;40.83;19.77;;;;;;;-0.69;100.00;93598.78;5063209;28;20492;-79
2021/11/13 05:24:03;;;;;;;34.33;17.70;;;;;;;-0.76;100.00;93582.56;5065589;28;20040;-79
2021/11/13 05:26:30;;;;;;;29.50;16.13;;;;;;;-0.77;100.00;93585.22;5065413;28;20101;-79
2021/11/13 05:28:57;;;;;;;25.85;14.25;;;;;;;-0.81;100.00;93590.53;5065194;28;20053;-79
2021/11/13 05:31:25;;;;;;;24.05;13.65;;;;;;;-0.89;100.00;93587.84;5065453;28;20040;-78
2021/11/13 05:33:52;;;;;;;22.60;12.43;;;;;;;-0.88;100.00;93602.06;5065789;28;20419;-78
2021/11/13 05:36:18;;;;;;;25.20;13.90;;;;;;;-0.90;100.00;93596.34;5065775;28;20063;-78
2021/11/13 05:38:45;;;;;;;19.50;12.63;;;;;;;-0.96;100.00;93602.72;5065133;28;20044;-77
2021/11/13 05:41:12;;;;;;;24.17;13.38;;;;;;;-1.03;100.00;93586.50;5065094;28;20056;-77
2021/11/13 05:43:39;;;;;;;29.30;18.05;;;;;;;-0.99;100.00;93608.03;5065475;28;20048;-77
2021/11/13 05:46:06;;;;;;;46.15;26.70;;;;;;;-1.13;100.00;93598.28;5065465;28;20461;-78
2021/11/13 05:48:34;;;;;;;40.28;20.73;;;;;;;-1.01;100.00;93606.56;5065081;28;20488;-77
2021/11/13 05:51:01;;;;;;;43.05;23.70;;;;;;;-0.99;100.00;93608.03;5065418;28;20044;-77
2021/11/13 05:53:27;;;;;;;87.50;41.95;;;;;;;-0.93;100.00;93614.25;5064818;28;20055;-77
2021/11/13 05:55:54;;;;;;;89.00;43.22;;;;;;;-0.93;100.00;93610.97;5065111;28;20098;-77
2021/11/13 05:58:21;;;;;;;75.78;41.05;;;;;;;-0.89;100.00;93613.09;5064949;28;20624;-77
2021/11/13 06:00:48;;;;;;;63.05;34.83;;;;;;;-0.82;100.00;93604.06;5064878;28;20056;-77
2021/11/13 06:03:15;;;;;;;56.80;33.22;;;;;;;-0.72;100.00;93608.34;5065135;28;20059;-77
2021/11/13 06:05:43;;;;;;;56.17;33.42;;;;;;;-0.63;100.00;93610.09;5065525;28;20048;-77
2021/11/13 06:08:10;;;;;;;53.08;30.63;;;;;;;-0.54;100.00;93609.28;5064753;28;20583;-78
2021/11/13 06:10:37;;;;;;;53.90;28.58;;;;;;;-0.48;100.00;93607.16;5061732;28;20044;-78
2021/11/13 06:13:04;;;;;;;50.38;28.42;;;;;;;-0.47;100.00;93611.28;5063331;28;20048;-78
2021/11/13 06:15:31;;;;;;;45.65;27.55;;;;;;;-0.58;100.00;93592.81;5064126;28;20537;-78
2021/11/13 06:17:58;;;;;;;51.22;29.45;;;;;;;-0.47;100.00;93612.06;5064817;28;20488;-79
2021/11/13 06:20:25;;;;;;;86.78;44.38;;;;;;;-0.44;100.00;93613.53;5064741;28;20044;-78
2021/11/13 06:22:54;;;;;;;71.65;39.97;;;;;;;-0.41;100.00;93610.78;5065031;28;20041;-78
2021/11/13 06:25:21;;;;;;;63.85;32.67;;;;;;;-0.42;100.00;93602.38;5065425;28;20044;-78
2021/11/13 06:27:48;;;;;;;80.47;39.17;;;;;;;-0.31;100.00;93596.44;5064381;28;20098;-78
2021/11/13 06:30:16;;;;;;;100.28;46.92;;;;;;;-0.15;100.00;93602.63;5064856;28;20048;-78
2021/11/13 06:32:44;;;;;;;71.50;40.35;;;;;;;0.02;100.00;93606.22;5064892;28;20521;-78
2021/11/13 06:35:12;;;;;;;77.72;40.65;;;;;;;0.21;100.00;93618.03;5064443;28;20052;-79
2021/11/13 06:37:40;;;;;;;68.50;38.33;;;;;;;0.28;100.00;93602.31;5064573;28;20048;-78
2021/11/13 06:40:11;;;;;;;59.97;35.20;;;;;;;0.38;100.00;93601.34;5064317;28;20051;-77
2021/11/13 06:42:38;;;;;;;50.05;30.92;;;;;;;0.53;100.00;93600.91;5064534;28;20518;-77
2021/11/13 06:45:07;;;;;;;44.38;28.38;;;;;;;0.69;100.00;93607.91;5064603;28;20060;-78
2021/11/13 06:47:34;;;;;;;54.75;33.25;;;;;;;0.80;100.00;93614.53;5064886;28;20048;-77
2021/11/13 06:50:01;;;;;;;54.72;32.97;;;;;;;0.92;100.00;93615.94;5064683;28;20052;-78
2021/11/13 06:52:27;;;;;;;49.15;32.92;;;;;;;1.03;100.00;93616.69;5064613;28;20048;-78
2021/11/13 06:54:54;;;;;;;57.25;32.30;;;;;;;1.10;100.00;93615.19;5064076;28;20048;-78
2021/11/13 06:57:23;;;;;;;51.53;28.95;;;;;;;1.12;100.00;93607.47;5063422;28;20044;-78
2021/11/13 06:59:50;;;;;;;31.83;20.85;;;;;;;1.00;100.00;93601.78;5064306;28;20049;-79
2021/11/13 07:02:16;;;;;;;31.23;19.73;;;;;;;0.98;100.00;93614.59;5064463;28;20098;-77
2021/11/13 07:04:43;;;;;;;32.75;19.88;;;;;;;0.80;100.00;93622.91;5064259;28;20049;-78
2021/11/13 07:07:11;;;;;;;33.08;19.70;;;;;;;0.90;100.00;93619.53;5063938;28;20106;-79
2021/11/13 07:09:38;;;;;;;32.13;19.60;;;;;;;1.10;100.00;93622.00;5063595;28;20106;-79
2021/11/13 07:12:06;;;;;;;40.42;23.15;;;;;;;1.18;100.00;93619.53;5063474;28;20075;-79
2021/11/13 07:14:34;;;;;;;61.47;31.17;;;;;;;1.12;100.00;93600.69;5064467;28;20095;-79
2021/11/13 07:17:01;;;;;;;58.00;28.73;;;;;;;1.39;100.00;93618.50;5064020;28;20048;-80
2021/11/13 07:19:28;;;;;;;46.60;27.95;;;;;;;1.38;100.00;93616.91;5064548;28;20492;-80
2021/11/13 07:21:55;;;;;;;50.28;28.52;;;;;;;1.56;100.00;93621.97;5064263;28;20055;-81
2021/11/13 07:24:22;;;;;;;58.25;31.27;;;;;;;1.75;100.00;93610.13;5064860;28;20102;-80
2021/11/13 07:26:52;;;;;;;53.55;28.80;;;;;;;1.83;100.00;93613.50;5067118;28;20040;-81
2021/11/13 07:29:19;;;;;;;53.97;26.90;;;;;;;2.04;100.00;93611.63;5067912;28;20083;-81
2021/11/13 07:31:47;;;;;;;54.33;27.80;;;;;;;2.13;100.00;93615.81;5067790;28;20059;-81
2021/11/13 07:34:14;;;;;;;48.80;27.83;;;;;;;2.18;100.00;93613.59;5067456;28;20109;-82
2021/11/13 07:36:41;;;;;;;54.60;27.25;;;;;;;2.43;100.00;93615.50;5067374;28;20056;-82
2021/11/13 07:39:08;;;;;;;58.40;29.13;;;;;;;2.49;100.00;93614.91;5067399;28;20047;-82
2021/11/13 07:41:35;;;;;;;53.03;28.90;;;;;;;2.59;100.00;93617.34;5067669;28;20060;-82
2021/11/13 07:44:01;;;;;;;61.85;32.60;;;;;;;2.57;100.00;93596.41;5067469;28;20044;-83
2021/11/13 07:46:28;;;;;;;70.55;35.20;;;;;;;2.80;100.00;93615.25;5067195;28;20040;-83
2021/11/13 07:48:56;;;;;;;57.08;30.85;;;;;;;2.69;100.00;93594.41;5067629;28;20421;-83
2021/11/13 07:51:23;;;;;;;53.75;31.52;;;;;;;2.91;100.00;93605.75;5070869;28;20106;-83
2021/11/13 07:53:50;;;;;;;70.63;35.22;;;;;;;3.12;100.00;93614.72;5071533;28;20045;-83
2021/11/13 07:56:18;;;;;;;63.92;34.05;;;;;;;3.09;100.00;93615.81;5070254;28;20412;-83
2021/11/13 07:58:45;;;;;;;69.15;35.05;;;;;;;3.05;100.00;93614.53;5067079;28;20049;-83
2021/11/13 08:01:11;;;;;;;71.75;34.00;;;;;;;3.03;100.00;93603.75;5067125;28;20048;-82
2021/11/13 08:03:38;;;;;;;61.85;32.17;;;;;;;3.15;100.00;93622.03;5067039;28;20044;-82
2021/11/13 08:06:07;;;;;;;55.38;27.42;;;;;;;2.96;100.00;93600.25;5066904;28;20053;-82
2021/11/13 08:08:34;;;;;;;72.53;31.40;;;;;;;3.32;100.00;93617.78;5067275;28;20048;-82
2021/11/13 08:11:01;;;;;;;68.60;33.38;;;;;;;3.30;100.00;93630.66;5066911;28;20510;-82
2021/11/13 08:13:28;;;;;;;67.82;35.03;;;;;;;3.42;100.00;93615.13;5066577;28;20377;-81
2021/11/13 08:15:55;;;;;;;74.65;35.80;;;;;;;3.66;100.00;93619.44;5067288;28;20423;-81
2021/11/13 08:18:22;;;;;;;57.97;30.55;;;;;;;3.85;100.00;93618.34;5067012;28;20406;-81
2021/11/13 08:20:49;;;;;;;60.40;29.55;;;;;;;4.08;100.00;93622.03;5066577;28;20052;-81
2021/11/13 08:23:17;;;;;;;62.53;29.48;;;;;;;4.26;100.00;93611.69;5066820;28;20054;-81
2021/11/13 08:25:46;;;;;;;67.18;29.58;;;;;;;4.45;100.00;93592.75;5066428;28;20045;-82
2021/11/13 08:28:13;;;;;;;61.92;32.60;;;;;;;4.84;97.18;93603.94;5066630;28;20047;-82
2021/11/13 08:30:41;;;;;;;54.25;27.15;;;;;;;4.97;96.58;93608.50;5066898;28;20053;-81
2021/11/13 08:33:08;;;;;;;57.33;26.70;;;;;;;5.21;98.42;93611.91;5066380;28;20052;-80
2021/11/13 08:35:35;;;;;;;56.85;24.75;;;;;;;5.51;94.72;93612.06;5066305;28;20059;-82
2021/11/13 08:38:03;;;;;;;45.22;21.77;;;;;;;5.45;90.48;93605.09;5066588;28;20053;-81
2021/11/13 08:40:32;;;;;;;41.08;19.25;;;;;;;5.69;87.97;93611.03;5066703;28;20106;-81
2021/11/13 08:42:59;;;;;;;44.67;22.48;;;;;;;5.68;89.93;93594.94;5066243;28;20121;-81
2021/11/13 08:45:26;;;;;;;43.83;22.60;;;;;;;5.97;93.34;93608.75;5066451;28;20048;-81
2021/11/13 08:47:52;;;;;;;48.58;25.65;;;;;;;6.20;88.08;93607.19;5066607;28;20044;-81
2021/11/13 08:50:23;;;;;;;47.63;25.00;;;;;;;6.34;92.77;93580.13;5066345;28;20044;-81
2021/11/13 08:52:52;;;;;;;52.67;22.75;;;;;;;6.38;86.22;93596.63;5065989;28;20048;-81
2021/11/13 08:55:21;;;;;;;47.83;22.23;;;;;;;6.35;84.16;93571.47;5066216;28;20079;-81
2021/11/13 08:57:50;;;;;;;48.22;23.85;;;;;;;6.67;85.94;93577.22;5065870;28;20048;-81
2021/11/13 09:00:20;;;;;;;41.45;20.33;;;;;;;6.85;84.03;93589.63;5066098;28;20052;-81
2021/11/13 09:02:47;;;;;;;49.03;22.25;;;;;;;6.84;81.71;93582.94;5065934;28;20056;-82
2021/11/13 09:05:14;;;;;;;36.05;17.65;;;;;;;7.05;76.66;93591.66;5065659;28;20504;-81
2021/11/13 09:07:41;;;;;;;58.15;25.95;;;;;;;7.21;81.30;93580.41;5065742;28;20451;-81
2021/11/13 09:10:09;;;;;;;44.72;20.95;;;;;;;7.26;77.98;93580.69;5065661;28;20055;-81
2021/11/13 09:12:37;;;;;;;45.03;19.65;;;;;;;7.22;77.04;93580.25;5065770;28;20049;-81
2021/11/13 09:15:11;;;;;;;43.40;19.35;;;;;;;7.30;74.86;93566.56;5065832;28;20067;-81
2021/11/13 09:17:38;;;;;;;41.38;18.75;;;;;;;7.45;74.03;93581.09;5065612;28;20575;-82
2021/11/13 09:20:06;;;;;;;41.20;15.82;;;;;;;7.58;71.31;93571.00;5065204;28;20098;-82
2021/11/13 09:22:34;;;;;;;36.25;16.17;;;;;;;7.76;68.79;93572.34;5065413;28;20060;-82
2021/11/13 09:25:01;;;;;;;32.33;15.07;;;;;;;7.85;69.49;93563.56;5065474;28;20044;-82
2021/11/13 09:27:28;;;;;;;33.22;18.02;;;;;;;7.94;71.81;93548.06;5065423;28;20055;-81
2021/11/13 09:29:55;;;;;;;32.80;16.10;;;;;;;8.13;68.61;93567.13;5065725;28;20041;-81
2021/11/13 09:32:24;;;;;;;34.28;15.73;;;;;;;8.27;68.23;93560.34;5065853;28;20045;-81
2021/11/13 09:34:51;;;;;;;28.67;15.20;;;;;;;8.46;67.70;93564.00;5065417;28;20041;-81
2021/11/13 09:37:18;;;;;;;32.78;17.08;;;;;;;8.67;68.03;93557.28;5065112;28;20062;-81
2021/11/13 09:39:45;;;;;;;32.03;15.48;;;;;;;8.79;66.88;93550.63;5065865;28;20419;-81
2021/11/13 09:42:12;;;;;;;32.63;16.25;;;;;;;8.80;68.70;93547.06;5065439;28;20048;-81
2021/11/13 09:44:39;;;;;;;31.65;15.20;;;;;;;8.97;67.65;93540.88;5065049;28;20048;-81
2021/11/13 09:47:06;;;;;;;29.88;15.60;;;;;;;9.13;69.86;93543.09;5065682;28;20454;-81
2021/11/13 09:49:34;;;;;;;29.90;14.45;;;;;;;9.34;69.07;93541.34;5064837;28;20090;-81
2021/11/13 09:52:02;;;;;;;27.98;13.75;;;;;;;9.54;67.17;93541.41;5065346;28;20041;-82
2021/11/13 09:54:29;;;;;;;31.50;15.40;;;;;;;9.73;63.00;93539.06;5065006;28;20385;-81
2021/11/13 09:56:57;;;;;;;31.90;14.38;;;;;;;9.98;70.80;93525.66;5065252;28;20466;-81
2021/11/13 09:59:24;;;;;;;38.60;15.80;;;;;;;10.08;62.53;93536.31;5065017;28;20047;-81
2021/11/13 10:01:52;;;;;;;28.73;13.98;;;;;;;10.16;60.35;93536.13;5064739;28;20060;-81
2021/11/13 10:04:18;;;;;;;27.77;13.77;;;;;;;10.34;59.50;93523.66;5064914;28;20048;-82
2021/11/13 10:06:48;;;;;;;29.73;14.60;;;;;;;10.50;62.42;93514.75;5064957;28;20094;-81
2021/11/13 10:09:15;;;;;;;33.05;14.48;;;;;;;10.45;59.12;93510.22;5065210;28;20463;-81
2021/11/13 10:11:48;;;;;;;35.00;15.30;;;;;;;10.41;64.55;93488.47;5065009;28;20048;-81
2021/11/13 10:14:16;;;;;;;29.35;14.50;;;;;;;10.82;59.13;93504.59;5064935;28;20044;-81
2021/11/13 10:16:46;;;;;;;30.17;14.20;;;;;;;10.82;59.02;93505.38;5065103;28;20101;-81
2021/11/13 10:19:15;;;;;;;25.15;12.80;;;;;;;11.01;56.05;93499.59;5065000;28;20135;-81
2021/11/13 10:21:47;;;;;;;21.48;11.88;;;;;;;11.19;55.85;93493.75;5064678;28;20051;-80
2021/11/13 10:24:17;;;;;;;34.53;13.73;;;;;;;11.37;60.86;93485.34;5064950;28;20051;-81
2021/11/13 10:26:47;;;;;;;30.80;14.02;;;;;;;11.52;60.96;93481.69;5065038;28;20048;-80
2021/11/13 10:29:16;;;;;;;25.35;12.57;;;;;;;11.75;59.89;93481.13;5064882;28;20053;-80
2021/11/13 10:31:44;;;;;;;26.30;13.30;;;;;;;11.89;59.61;93477.47;5064762;28;20044;-81
2021/11/13 10:34:13;;;;;;;23.42;11.20;;;;;;;12.01;52.23;93476.75;5064610;28;20507;-80
2021/11/13 10:36:42;;;;;;;30.98;13.38;;;;;;;12.09;52.58;93473.94;5064727;28;20450;-81
2021/11/13 10:39:13;;;;;;;22.40;10.88;;;;;;;12.20;52.29;93469.09;5060576;28;20087;-81
2021/11/13 10:41:46;;;;;;;20.05;10.60;;;;;;;12.33;54.78;93463.81;5062757;28;20048;-81
2021/11/13 10:44:14;;;;;;;22.20;11.98;;;;;;;12.40;55.29;93458.59;5064698;28;20045;-81
2021/11/13 10:46:43;;;;;;;19.90;9.85;;;;;;;12.39;53.29;93452.66;5064592;28;20044;-81
2021/11/13 10:49:10;;;;;;;24.45;10.90;;;;;;;12.40;55.63;93443.13;5064160;28;20055;-81
2021/11/13 10:51:39;;;;;;;20.58;10.27;;;;;;;12.56;57.21;93436.63;5064270;28;20476;-81
2021/11/13 10:54:14;;;;;;;23.83;10.18;;;;;;;11.96;50.91;93360.78;5064457;28;20149;-81
2021/11/13 10:56:45;;;;;;;18.75;11.05;;;;;;;12.71;54.74;93443.97;5064712;28;20060;-81
2021/11/13 10:59:12;;;;;;;23.20;9.88;;;;;;;12.78;49.42;93449.06;5064554;28;20136;-81
2021/11/13 11:01:41;;;;;;;21.40;9.52;;;;;;;12.92;48.97;93454.84;5067501;28;20095;-81
2021/11/13 11:04:12;;;;;;;23.60;10.40;;;;;;;12.99;49.58;93442.66;5068270;28;20788;-80
2021/11/13 11:06:41;;;;;;;21.25;9.50;;;;;;;13.08;50.03;93451.66;5068608;28;20056;-81
2021/11/13 11:09:26;;;;;;;21.20;9.27;;;;;;;12.90;49.02;93447.31;5067808;28;20499;-81
2021/11/13 11:11:55;;;;;;;19.08;10.77;;;;;;;12.98;48.74;93445.44;5068161;28;20044;-82
2021/11/13 11:14:24;;;;;;;19.35;9.43;;;;;;;12.99;49.49;93437.50;5068043;28;20458;-81
2021/11/13 11:16:53;;;;;;;20.52;10.05;;;;;;;13.16;53.93;93431.72;5067365;28;20040;-80
2021/11/13 11:19:23;;;;;;;20.65;9.57;;;;;;;13.00;47.95;93400.38;5068248;28;20040;-82